Time;durP1;ratioP1;P1;durP2;ratioP2;P2;SDS_P1;SDS_P2;PMS_P1;PMS_P2;Temp;Humidity;BMP_temperature;BMP_pressure;BME280_temperature;BME280_humidity;BME280_pressure;Samples;Min_cycle;Max_cycle;Signal;HPM_P1;HPM_P2
2024/01/07 00:03:22;;;;;;;14.50;7.10;;;;;;;-3.94;79.34;99779.72;216873;1264;141769;-68
2024/01/07 00:08:26;;;;;;;9.80;5.60;;;;;;;-4.00;79.24;99783.02;216309;1264;141081;-65
2024/01/07 00:13:29;;;;;;;14.20;7.80;;;;;;;-4.05;79.35;99780.70;218730;1264;141120;-67
2024/01/07 00:18:32;;;;;;;15.80;7.90;;;;;;;-4.09;79.14;99788.53;215872;1267;141199;-65
2024/01/07 00:23:35;;;;;;;11.20;7.00;;;;;;;-4.10;79.19;99788.83;219098;1264;140021;-66
2024/01/07 00:28:38;;;;;;;10.10;5.90;;;;;;;-4.11;79.20;99792.55;217673;1267;141181;-65
2024/01/07 00:33:43;;;;;;;8.70;6.30;;;;;;;-4.12;79.17;99798.86;216786;1267;140674;-65
2024/01/07 00:38:45;;;;;;;12.70;6.10;;;;;;;-4.14;79.06;99801.86;216415;1264;140653;-66
2024/01/07 00:43:48;;;;;;;10.60;5.50;;;;;;;-4.17;79.16;99803.70;216173;1265;141153;-66
2024/01/07 00:48:51;;;;;;;11.00;6.30;;;;;;;-4.21;79.12;99808.77;216899;1265;140192;-65
2024/01/07 00:53:57;;;;;;;14.20;7.30;;;;;;;-4.26;79.06;99805.40;217992;1265;140026;-66
2024/01/07 00:59:01;;;;;;;11.30;6.70;;;;;;;-4.31;79.20;99807.91;217373;1265;140311;-65
2024/01/07 01:04:04;;;;;;;12.00;7.30;;;;;;;-4.34;79.21;99807.70;216092;1267;142210;-65
2024/01/07 01:09:08;;;;;;;16.80;9.40;;;;;;;-4.40;79.04;99806.13;216535;1265;142157;-66
2024/01/07 01:14:10;;;;;;;11.30;5.70;;;;;;;-4.43;79.38;99807.91;216286;1267;140221;-65
2024/01/07 01:19:13;;;;;;;8.90;6.20;;;;;;;-4.48;79.08;99811.16;217263;1265;140680;-66
2024/01/07 01:24:15;;;;;;;15.40;7.70;;;;;;;-4.54;79.20;99815.16;217558;1264;141749;-67
2024/01/07 01:29:18;;;;;;;13.90;7.80;;;;;;;-4.58;79.34;99809.98;217132;1267;142524;-68
2024/01/07 01:34:21;;;;;;;10.10;7.40;;;;;;;-4.58;79.51;99817.29;218149;1263;140676;-69
2024/01/07 01:39:24;;;;;;;10.90;7.80;;;;;;;-4.62;79.22;99819.05;216557;1264;140717;-69
2024/01/07 01:44:31;;;;;;;13.80;7.50;;;;;;;-4.68;79.36;99819.59;216335;1266;141015;-70
2024/01/07 01:49:36;;;;;;;12.10;5.70;;;;;;;-4.67;79.70;99824.71;216414;1266;140601;-69
2024/01/07 01:54:40;;;;;;;12.70;8.10;;;;;;;-4.71;79.41;99827.09;219111;1264;141010;-68
2024/01/07 01:59:43;;;;;;;12.40;7.00;;;;;;;-4.75;79.85;99830.25;217395;1265;140758;-68
2024/01/07 02:04:46;;;;;;;11.20;6.60;;;;;;;-4.76;79.69;99829.24;216239;1264;139995;-70
2024/01/07 02:09:49;;;;;;;12.70;5.80;;;;;;;-4.79;79.77;99822.44;216555;1264;140954;-67
2024/01/07 02:14:52;;;;;;;13.70;6.50;;;;;;;-4.88;79.72;99823.25;218277;1264;140332;-68
2024/01/07 02:19:55;;;;;;;15.60;7.40;;;;;;;-4.93;79.82;99824.00;218465;1264;140572;-65
2024/01/07 02:24:58;;;;;;;12.60;6.50;;;;;;;-4.97;79.74;99823.14;216065;1267;139969;-67
2024/01/07 02:30:01;;;;;;;14.30;8.70;;;;;;;-5.05;79.74;99820.75;216827;1263;139839;-65
2024/01/07 02:35:05;;;;;;;11.70;6.90;;;;;;;-5.07;80.00;99822.85;217454;1264;140391;-67
2024/01/07 02:40:12;;;;;;;9.60;6.70;;;;;;;-5.14;79.97;99826.36;216564;1266;140242;-67
2024/01/07 02:45:16;;;;;;;11.50;7.70;;;;;;;-5.16;80.16;99826.52;216318;1264;139872;-69
2024/01/07 02:50:20;;;;;;;12.00;7.90;;;;;;;-5.20;79.88;99827.71;216956;1265;142062;-68
2024/01/07 02:55:23;;;;;;;14.00;6.70;;;;;;;-5.24;80.09;99831.56;216022;1264;140478;-68
2024/01/07 03:00:26;;;;;;;12.50;8.00;;;;;;;-5.31;80.10;99832.14;215802;1267;141095;-68
2024/01/07 03:05:32;;;;;;;10.30;6.90;;;;;;;-5.37;80.05;99826.94;215840;1265;141041;-67
2024/01/07 03:10:35;;;;;;;15.20;7.90;;;;;;;-5.44;80.08;99829.98;216463;1264;139910;-68
2024/01/07 03:15:39;;;;;;;11.10;7.70;;;;;;;-5.46;80.32;99829.83;217123;1265;140254;-67
2024/01/07 03:20:44;;;;;;;11.70;7.60;;;;;;;-5.43;80.38;99832.71;216292;1267;140132;-68
2024/01/07 03:25:47;;;;;;;7.90;6.30;;;;;;;-5.48;80.21;99835.81;215779;1266;140455;-68
2024/01/07 03:30:51;;;;;;;9.80;6.10;;;;;;;-5.60;80.14;99830.15;216619;1267;140951;-68
2024/01/07 03:35:54;;;;;;;10.40;6.00;;;;;;;-5.68;80.39;99835.68;216047;1266;139960;-67
2024/01/07 03:40:58;;;;;;;9.70;6.40;;;;;;;-5.75;80.23;99842.49;217381;1265;140394;-66
2024/01/07 03:46:01;;;;;;;12.90;6.10;;;;;;;-5.78;80.32;99845.33;216257;1265;140118;-66
2024/01/07 03:51:08;;;;;;;13.10;7.30;;;;;;;-5.80;80.33;99848.30;215836;1267;141046;-68
2024/01/07 03:56:11;;;;;;;14.90;6.20;;;;;;;-5.88;80.25;99853.58;219134;1267;141211;-67
2024/01/07 04:01:18;;;;;;;12.80;6.30;;;;;;;-5.93;80.13;99858.23;219020;1265;140470;-67
2024/01/07 04:06:22;;;;;;;10.80;7.20;;;;;;;-5.95;80.31;99859.25;217090;1267;140584;-67
2024/01/07 04:11:25;;;;;;;9.50;6.60;;;;;;;-5.98;80.13;99867.27;215677;1267;141007;-67
2024/01/07 04:16:28;;;;;;;11.10;7.80;;;;;;;-6.08;80.25;99864.77;217173;1267;140241;-66
2024/01/07 04:21:32;;;;;;;9.60;6.70;;;;;;;-6.13;80.35;99871.83;215868;1265;141368;-67
2024/01/07 04:26:38;;;;;;;11.50;6.30;;;;;;;-6.14;80.56;99872.42;216246;1264;140711;-66
2024/01/07 04:31:40;;;;;;;12.10;6.80;;;;;;;-6.15;80.63;99868.33;217009;1265;142185;-66
2024/01/07 04:36:43;;;;;;;11.00;6.90;;;;;;;-6.17;80.57;99869.21;215849;1267;141173;-67
2024/01/07 04:41:46;;;;;;;12.90;6.90;;;;;;;-6.21;80.57;99875.58;217041;1266;140328;-65
2024/01/07 04:46:50;;;;;;;11.10;7.10;;;;;;;-6.26;80.84;99883.10;216327;1266;140567;-68
2024/01/07 04:51:54;;;;;;;43.70;9.50;;;;;;;-6.32;80.81;99891.54;217311;1267;140241;-67
2024/01/07 04:56:59;;;;;;;11.10;7.40;;;;;;;-6.36;80.72;99896.71;216420;1267;140110;-65
2024/01/07 05:02:02;;;;;;;11.90;7.50;;;;;;;-6.39;81.00;99900.56;216118;1267;140082;-68
2024/01/07 05:07:06;;;;;;;13.10;6.80;;;;;;;-6.39;81.09;99905.09;217041;1266;140443;-67
2024/01/07 05:12:09;;;;;;;11.70;8.00;;;;;;;-6.43;80.78;99906.60;216141;1264;140956;-69
2024/01/07 05:17:12;;;;;;;11.50;7.40;;;;;;;-6.50;80.98;99907.52;215991;1267;140426;-68
2024/01/07 05:22:15;;;;;;;7.10;6.00;;;;;;;-6.58;81.13;99909.70;218273;1264;140689;-70
2024/01/07 05:27:18;;;;;;;17.20;7.60;;;;;;;-6.61;81.11;99908.55;216354;1268;140127;-71
2024/01/07 05:32:21;;;;;;;13.40;8.40;;;;;;;-6.64;81.02;99912.95;216092;1264;140950;-70
2024/01/07 05:37:24;;;;;;;14.80;8.60;;;;;;;-6.67;81.16;99919.73;215897;1269;139816;-69
2024/01/07 05:42:27;;;;;;;12.90;8.20;;;;;;;-6.71;81.03;99922.44;215753;1268;141868;-70
2024/01/07 05:47:31;;;;;;;15.20;8.30;;;;;;;-6.72;81.21;99920.66;215777;1266;140516;-70
2024/01/07 05:52:34;;;;;;;7.70;5.70;;;;;;;-6.75;81.10;99924.89;215920;1269;140967;-69
2024/01/07 05:57:38;;;;;;;11.70;7.00;;;;;;;-6.82;80.99;99929.02;215690;1264;139924;-69
2024/01/07 06:02:41;;;;;;;12.50;8.90;;;;;;;-6.89;81.11;99936.16;219183;1264;141145;-68
2024/01/07 06:07:44;;;;;;;10.50;8.10;;;;;;;-6.93;81.09;99943.04;216756;1264;142801;-68
2024/01/07 06:12:47;;;;;;;14.80;9.50;;;;;;;-6.96;81.04;99943.74;216854;1264;141045;-67
2024/01/07 06:17:51;;;;;;;9.50;7.60;;;;;;;-6.98;81.08;99945.34;216456;1263;140941;-66
2024/01/07 06:22:55;;;;;;;13.10;8.90;;;;;;;-7.09;80.74;99941.84;215862;1267;140069;-66
2024/01/07 06:27:58;;;;;;;15.60;9.10;;;;;;;-7.16;81.18;99946.16;216826;1264;140912;-65
2024/01/07 06:33:01;;;;;;;15.10;8.10;;;;;;;-7.16;81.42;99950.46;215825;1269;140554;-66
2024/01/07 06:38:05;;;;;;;12.80;8.00;;;;;;;-7.16;81.41;99954.77;215825;1264;140516;-67
2024/01/07 06:43:08;;;;;;;12.40;8.20;;;;;;;-7.15;81.52;99964.05;215828;1267;141290;-69
2024/01/07 06:48:11;;;;;;;14.70;8.80;;;;;;;-7.17;81.37;99969.02;215766;1269;162307;-69
2024/01/07 06:53:16;;;;;;;13.50;9.30;;;;;;;-7.21;81.26;99976.08;215868;1269;140560;-70
2024/01/07 06:58:19;;;;;;;16.80;10.80;;;;;;;-7.27;81.20;99980.38;216038;1263;140740;-69
2024/01/07 07:03:23;;;;;;;16.60;8.90;;;;;;;-7.31;81.32;99981.38;217051;1264;142016;-67
2024/01/07 07:08:29;;;;;;;11.00;8.40;;;;;;;-7.29;81.47;99985.31;216050;1264;140906;-69
2024/01/07 07:13:31;;;;;;;15.90;8.60;;;;;;;-7.30;81.26;99985.59;215854;1264;140465;-68
2024/01/07 07:18:34;;;;;;;12.10;7.30;;;;;;;-7.29;81.38;99988.11;215886;1264;141124;-68
2024/01/07 07:23:36;;;;;;;15.50;8.50;;;;;;;-7.31;81.35;99993.62;215595;1264;141458;-69
2024/01/07 07:28:39;;;;;;;13.20;8.40;;;;;;;-7.33;81.34;100006.84;215902;1264;141304;-69
2024/01/07 07:33:41;;;;;;;11.00;7.60;;;;;;;-7.33;81.42;100010.49;215719;1264;140761;-69
2024/01/07 07:38:44;;;;;;;9.40;6.80;;;;;;;-7.30;81.52;100013.20;217546;1264;140667;-65
2024/01/07 07:43:46;;;;;;;14.00;8.90;;;;;;;-7.27;81.43;100010.60;219038;1264;140632;-66
2024/01/07 07:48:49;;;;;;;15.80;11.00;;;;;;;-7.24;81.53;100010.35;218941;1264;141036;-66
2024/01/07 07:53:52;;;;;;;16.20;9.40;;;;;;;-7.14;81.68;100006.83;218726;1263;142411;-66
2024/01/07 07:58:57;;;;;;;17.80;10.90;;;;;;;-7.05;81.53;100015.68;219004;1264;141075;-67
2024/01/07 08:04:02;;;;;;;17.30;11.00;;;;;;;-7.04;81.38;100018.90;216223;1267;141247;-68
2024/01/07 08:09:05;;;;;;;17.10;9.90;;;;;;;-7.02;81.46;100018.38;218009;1263;140988;-66
2024/01/07 08:14:09;;;;;;;14.30;8.90;;;;;;;-7.01;81.33;100026.23;216737;1267;141206;-68
2024/01/07 08:19:12;;;;;;;15.90;8.90;;;;;;;-7.02;81.43;100025.09;215972;1264;140683;-67
2024/01/07 08:24:15;;;;;;;18.30;9.90;;;;;;;-7.06;81.29;100026.11;215853;1264;250766;-67
2024/01/07 08:29:18;;;;;;;11.90;8.30;;;;;;;-7.05;81.53;100036.39;215922;1264;141379;-67
2024/01/07 08:34:21;;;;;;;9.80;7.60;;;;;;;-7.10;81.19;100040.95;215887;1264;141028;-65
2024/01/07 08:39:25;;;;;;;19.10;11.40;;;;;;;-7.12;81.50;100040.34;215957;1263;141519;-63
2024/01/07 08:44:29;;;;;;;15.50;8.40;;;;;;;-7.09;81.48;100043.81;216511;1264;140803;-66
2024/01/07 08:49:35;;;;;;;17.40;9.40;;;;;;;-7.07;81.50;100052.44;215846;1264;141511;-66
2024/01/07 08:54:38;;;;;;;17.50;9.90;;;;;;;-7.04;81.58;100054.80;215705;1264;140659;-66
2024/01/07 08:59:42;;;;;;;16.90;9.30;;;;;;;-6.99;81.47;100059.73;215867;1267;140434;-64
2024/01/07 09:04:45;;;;;;;16.40;9.20;;;;;;;-6.97;81.42;100063.89;216308;1267;141145;-66
2024/01/07 09:09:48;;;;;;;15.00;9.00;;;;;;;-6.93;81.53;100069.29;217171;1264;142426;-68
2024/01/07 09:14:52;;;;;;;13.90;9.70;;;;;;;-6.84;81.48;100072.76;217410;1265;141542;-66
2024/01/07 09:19:55;;;;;;;12.20;7.70;;;;;;;-6.77;81.41;100072.82;217707;1263;140589;-66
2024/01/07 09:24:58;;;;;;;15.40;9.40;;;;;;;-6.71;81.45;100074.36;216302;1267;141114;-66
2024/01/07 09:30:01;;;;;;;21.20;10.90;;;;;;;-6.61;81.42;100077.24;217036;1264;141487;-66
2024/01/07 09:35:05;;;;;;;18.30;10.50;;;;;;;-6.61;81.25;100079.48;216363;1263;141816;-65
2024/01/07 09:40:08;;;;;;;14.80;8.50;;;;;;;-6.61;80.99;100074.48;218187;1264;141889;-67
2024/01/07 09:45:13;;;;;;;18.70;10.80;;;;;;;-6.62;81.14;100078.73;218546;1264;140993;-67
2024/01/07 09:50:16;;;;;;;14.80;9.50;;;;;;;-6.58;81.40;100080.63;215999;1267;140641;-63
2024/01/07 09:55:29;;;;;;;16.10;8.70;;;;;;;-6.61;80.71;100080.02;216828;1264;140824;-67
2024/01/07 10:00:35;;;;;;;18.60;12.80;;;;;;;-6.70;80.82;100077.94;216026;1267;141291;-68
2024/01/07 10:05:38;;;;;;;16.00;10.30;;;;;;;-6.71;81.03;100071.58;216347;1264;140351;-68
2024/01/07 10:10:40;;;;;;;20.80;9.10;;;;;;;-6.70;80.84;100073.94;216204;1264;235790;-67
2024/01/07 10:15:43;;;;;;;20.00;10.30;;;;;;;-6.75;81.11;100074.20;216253;1267;140629;-69
2024/01/07 10:20:47;;;;;;;15.40;10.10;;;;;;;-6.75;81.11;100069.88;217048;1264;140632;-68
2024/01/07 10:25:49;;;;;;;18.00;11.10;;;;;;;-6.70;81.18;100067.52;216292;1267;140694;-66
2024/01/07 10:30:53;;;;;;;17.30;10.90;;;;;;;-6.70;81.01;100072.26;215365;1265;566342;-67
2024/01/07 10:36:03;;;;;;;15.20;8.50;;;;;;;-6.76;80.97;100074.83;216451;1264;140500;-67
2024/01/07 10:41:09;;;;;;;16.50;10.20;;;;;;;-6.80;80.95;100079.92;215911;1267;140372;-68
2024/01/07 10:46:14;;;;;;;15.30;8.80;;;;;;;-6.86;80.89;100080.50;216276;1266;140882;-69
2024/01/07 10:51:20;;;;;;;24.70;14.10;;;;;;;-6.90;80.84;100077.22;216449;1267;141290;-67
2024/01/07 10:56:24;;;;;;;22.50;12.50;;;;;;;-6.93;80.89;100073.98;217178;1265;141623;-67
2024/01/07 11:01:26;;;;;;;21.00;11.80;;;;;;;-6.94;80.93;100064.91;216293;1267;144328;-67
2024/01/07 11:06:57;;;;;;;23.60;12.20;;;;;;;-6.97;80.95;100061.64;216209;1265;141821;-68
2024/01/07 11:12:00;;;;;;;24.00;11.70;;;;;;;-6.92;81.00;100056.46;215945;1265;141059;-67
2024/01/07 11:17:03;;;;;;;18.80;11.50;;;;;;;-6.91;80.98;100052.20;217224;1264;141335;-69
2024/01/07 11:22:29;;;;;;;20.00;10.10;;;;;;;-6.88;80.97;100052.31;218204;1264;141472;-67
2024/01/07 11:27:32;;;;;;;20.70;11.30;;;;;;;-6.89;80.77;100052.77;216415;1264;142438;-68
2024/01/07 11:32:34;;;;;;;27.80;13.30;;;;;;;-6.92;80.77;100050.21;216592;1264;155793;-68
2024/01/07 11:37:37;;;;;;;22.00;12.80;;;;;;;-6.89;81.01;100047.23;218099;1264;141407;-68
2024/01/07 11:42:40;;;;;;;16.70;9.20;;;;;;;-6.88;80.77;100047.20;218061;1264;141031;-67
2024/01/07 11:47:43;;;;;;;19.50;9.30;;;;;;;-6.89;80.70;100051.94;217593;1263;141622;-68
2024/01/07 11:52:47;;;;;;;15.50;9.80;;;;;;;-6.95;80.54;100055.13;216415;1267;142210;-68
2024/01/07 11:57:51;;;;;;;21.00;11.00;;;;;;;-6.95;80.91;100051.69;216381;1264;141421;-66
2024/01/07 12:02:54;;;;;;;21.10;12.60;;;;;;;-6.94;81.00;100057.77;217986;1263;141366;-67
2024/01/07 12:07:57;;;;;;;20.30;11.80;;;;;;;-6.92;81.05;100062.89;218855;1263;140740;-66
2024/01/07 12:12:59;;;;;;;18.10;10.60;;;;;;;-6.92;80.90;100060.23;217177;1264;141253;-66
2024/01/07 12:18:02;;;;;;;18.80;11.50;;;;;;;-6.95;80.77;100060.33;217074;1267;141651;-67
2024/01/07 12:23:10;;;;;;;15.90;9.70;;;;;;;-6.94;80.94;100060.79;216498;1267;142728;-66
2024/01/07 12:28:12;;;;;;;21.00;11.00;;;;;;;-6.91;80.96;100061.75;216767;1266;140509;-69
2024/01/07 12:33:20;;;;;;;22.50;12.20;;;;;;;-6.96;80.60;100059.16;216126;1263;141322;-69
2024/01/07 12:38:25;;;;;;;;;;;;;;;-6.99;80.68;100063.41;216322;1265;141101;-69
2024/01/07 12:43:27;;;;;;;17.70;11.90;;;;;;;-6.99;80.85;100068.07;216795;1267;127567;-68
2024/01/07 12:48:30;;;;;;;13.20;8.60;;;;;;;-7.04;80.69;100075.89;216478;1262;142300;-66
2024/01/07 12:53:32;;;;;;;16.90;9.20;;;;;;;-7.08;80.73;100081.70;218338;1264;140668;-68
2024/01/07 12:58:35;;;;;;;18.60;10.00;;;;;;;-7.09;80.71;100086.45;216286;1264;140690;-68
2024/01/07 13:03:37;;;;;;;15.50;10.60;;;;;;;-7.06;80.86;100092.10;216488;1264;140898;-70
2024/01/07 13:08:39;;;;;;;16.00;10.30;;;;;;;-7.07;80.80;100094.08;217084;1264;140954;-68
2024/01/07 13:13:41;;;;;;;26.30;13.00;;;;;;;-7.14;80.73;100102.32;216001;1264;140816;-68
2024/01/07 13:18:45;;;;;;;16.90;9.60;;;;;;;-7.12;80.80;100093.07;218016;1264;141003;-67
2024/01/07 13:23:47;;;;;;;17.40;10.80;;;;;;;-7.14;80.58;100103.58;217033;1264;141009;-67
2024/01/07 13:28:50;;;;;;;11.60;9.40;;;;;;;-7.21;80.54;100100.62;216593;1264;221567;-68
2024/01/07 13:33:52;;;;;;;25.70;14.70;;;;;;;-7.26;80.47;100113.89;216832;1264;140828;-67
2024/01/07 13:38:55;;;;;;;16.70;10.40;;;;;;;-7.33;80.60;100118.91;219036;1264;141249;-67
2024/01/07 13:43:58;;;;;;;24.40;12.50;;;;;;;-7.37;80.45;100126.31;217930;1264;141049;-67
2024/01/07 13:49:00;;;;;;;22.40;13.00;;;;;;;-7.45;80.35;100131.54;216214;1267;141289;-70
2024/01/07 13:54:05;;;;;;;20.10;10.40;;;;;;;-7.49;80.64;100132.31;216199;1264;140612;-68
2024/01/07 13:59:09;;;;;;;23.60;11.80;;;;;;;-7.49;80.99;100135.75;216272;1262;140647;-71
2024/01/07 14:04:13;;;;;;;20.40;10.90;;;;;;;-7.45;81.06;100136.53;216892;1264;140618;-71
2024/01/07 14:09:15;;;;;;;15.90;9.50;;;;;;;-7.46;80.57;100134.38;216581;1267;141293;-66
2024/01/07 14:14:21;;;;;;;21.10;10.70;;;;;;;-7.54;80.52;100146.70;216626;1265;141221;-68
2024/01/07 14:19:24;;;;;;;14.80;9.10;;;;;;;-7.62;80.37;100145.84;216633;1264;141628;-67
2024/01/07 14:24:29;;;;;;;13.30;8.60;;;;;;;-7.72;80.47;100148.39;216155;1267;141643;-71
2024/01/07 14:29:31;;;;;;;28.10;13.70;;;;;;;-7.77;80.49;100152.33;216156;1264;140837;-69
2024/01/07 14:34:34;;;;;;;23.10;12.40;;;;;;;-7.76;80.73;100155.37;216340;1264;140672;-71
2024/01/07 14:39:37;;;;;;;30.90;12.60;;;;;;;-7.78;80.56;100163.05;216187;1264;140851;-71
2024/01/07 14:44:41;;;;;;;16.90;9.70;;;;;;;-7.84;80.57;100162.79;217316;1264;141694;-71
2024/01/07 14:49:53;;;;;;;18.90;10.80;;;;;;;-7.87;80.44;100164.53;216416;1267;141427;-68
2024/01/07 14:54:56;;;;;;;10.90;8.70;;;;;;;-7.92;80.54;100174.00;216283;1264;141765;-69
2024/01/07 14:59:59;;;;;;;18.00;9.70;;;;;;;-7.92;80.57;100176.59;216204;1264;140401;-67
2024/01/07 15:05:03;;;;;;;21.50;11.00;;;;;;;-7.92;80.54;100178.48;215992;1267;140608;-70
2024/01/07 15:10:07;;;;;;;21.00;10.00;;;;;;;-7.93;80.55;100179.13;216313;1266;142025;-69
2024/01/07 15:15:10;;;;;;;21.90;11.70;;;;;;;-7.99;80.57;100187.98;216113;1264;141388;-69
2024/01/07 15:20:13;;;;;;;18.80;9.40;;;;;;;-8.01;80.63;100193.52;216385;1265;141310;-70
2024/01/07 15:25:17;;;;;;;14.70;9.10;;;;;;;-8.00;80.79;100196.52;216428;1265;140612;-67
2024/01/07 15:30:20;;;;;;;20.50;11.80;;;;;;;-8.02;80.78;100195.48;217732;1264;141739;-67
2024/01/07 15:35:23;;;;;;;17.60;11.20;;;;;;;-8.03;80.69;100195.88;218987;1264;141972;-68
2024/01/07 15:40:26;;;;;;;16.00;9.50;;;;;;;-8.07;80.38;100198.19;216921;1264;141374;-71
2024/01/07 15:45:29;;;;;;;20.10;10.00;;;;;;;-8.09;80.47;100203.52;217002;1265;141566;-65
2024/01/07 15:50:32;;;;;;;20.70;12.50;;;;;;;-8.14;80.30;100206.59;217329;1265;141046;-66
2024/01/07 15:55:35;;;;;;;17.90;10.40;;;;;;;-8.14;80.44;100206.45;216467;1263;140575;-70
2024/01/07 16:00:37;;;;;;;17.50;11.10;;;;;;;-8.11;80.58;100209.39;216054;1267;141056;-69
2024/01/07 16:05:40;;;;;;;22.50;10.80;;;;;;;-8.14;80.24;100217.98;216167;1264;140987;-69
2024/01/07 16:10:42;;;;;;;15.00;10.60;;;;;;;-8.15;80.52;100223.41;216411;1264;140851;-73
2024/01/07 16:15:45;;;;;;;23.40;12.40;;;;;;;-8.14;80.49;100228.85;216327;1266;140850;-70
2024/01/07 16:20:47;;;;;;;15.10;8.60;;;;;;;-8.14;80.37;100232.14;216560;1264;152203;-69
2024/01/07 16:25:50;;;;;;;22.40;12.80;;;;;;;-8.12;80.67;100240.65;218096;1264;141481;-69
2024/01/07 16:30:54;;;;;;;22.60;11.50;;;;;;;-8.16;80.25;100242.96;216210;1264;140961;-69
2024/01/07 16:35:57;;;;;;;22.80;11.50;;;;;;;-8.18;80.54;100245.67;216498;1265;140439;-68
2024/01/07 16:40:59;;;;;;;12.60;8.30;;;;;;;-8.20;80.32;100255.27;216890;1265;142544;-70
2024/01/07 16:46:03;;;;;;;20.60;10.40;;;;;;;-8.22;80.30;100259.77;216342;1265;140988;-68
2024/01/07 16:51:11;;;;;;;14.30;8.40;;;;;;;-8.17;80.53;100267.36;215605;1267;141011;-69
2024/01/07 16:56:14;;;;;;;15.60;8.90;;;;;;;-8.18;80.36;100268.77;215725;1264;141748;-68
2024/01/07 17:01:18;;;;;;;16.30;10.40;;;;;;;-8.24;80.16;100271.23;215456;1265;142656;-69
2024/01/07 17:06:25;;;;;;;16.10;8.70;;;;;;;-8.26;80.31;100272.97;215685;1265;141919;-69
2024/01/07 17:11:28;;;;;;;18.60;10.70;;;;;;;-8.25;80.39;100275.27;218942;1265;140802;-68
2024/01/07 17:16:31;;;;;;;18.70;11.90;;;;;;;-8.25;80.30;100277.52;218969;1264;141409;-68
2024/01/07 17:21:33;;;;;;;15.40;9.20;;;;;;;-8.24;80.32;100282.61;218884;1264;141292;-69
2024/01/07 17:26:36;;;;;;;15.20;9.20;;;;;;;-8.22;80.08;100283.69;218821;1265;140995;-69
2024/01/07 17:31:38;;;;;;;14.40;8.80;;;;;;;-8.21;80.15;100291.72;218858;1264;140733;-70
2024/01/07 17:36:42;;;;;;;16.90;9.70;;;;;;;-8.22;79.90;100293.19;218907;1265;141049;-69
2024/01/07 17:41:45;;;;;;;18.80;10.40;;;;;;;-8.22;80.06;100300.59;216503;1265;141134;-69
2024/01/07 17:46:48;;;;;;;21.10;13.40;;;;;;;-8.22;80.20;100305.58;216706;1265;141558;-69
2024/01/07 17:51:52;;;;;;;14.10;8.60;;;;;;;-8.21;80.05;100310.73;215757;1264;141941;-67
2024/01/07 17:56:55;;;;;;;21.50;9.80;;;;;;;-8.25;79.80;100314.25;215946;1264;141393;-69
2024/01/07 18:01:58;;;;;;;19.70;12.50;;;;;;;-8.28;79.83;100315.20;215775;1265;141925;-71
2024/01/07 18:07:02;;;;;;;14.50;8.90;;;;;;;-8.21;80.13;100316.60;216426;1264;141617;-67
2024/01/07 18:12:06;;;;;;;19.40;10.70;;;;;;;-8.23;79.77;100323.80;215712;1267;140609;-68
2024/01/07 18:17:09;;;;;;;28.10;13.60;;;;;;;-8.23;79.96;100332.73;215743;1265;141406;-66
2024/01/07 18:22:13;;;;;;;17.20;9.50;;;;;;;-8.19;79.94;100337.83;216056;1264;140843;-66
2024/01/07 18:27:16;;;;;;;18.80;10.10;;;;;;;-8.18;79.76;100341.20;216482;1265;140885;-68
2024/01/07 18:32:18;;;;;;;19.30;9.70;;;;;;;-8.22;79.69;100349.38;215683;1267;140601;-68
2024/01/07 18:37:21;;;;;;;23.50;11.50;;;;;;;-8.21;79.84;100353.27;216628;1266;140216;-66
2024/01/07 18:42:24;;;;;;;20.60;9.60;;;;;;;-8.20;79.77;100361.49;216670;1265;140432;-67
2024/01/07 18:47:28;;;;;;;21.50;10.80;;;;;;;-8.21;79.86;100365.20;217773;1264;140231;-68
2024/01/07 18:52:31;;;;;;;15.60;9.40;;;;;;;-8.18;79.94;100376.20;216291;1266;140865;-68
2024/01/07 18:57:35;;;;;;;15.70;9.10;;;;;;;-8.22;79.67;100378.89;216828;1264;140299;-68
2024/01/07 19:02:37;;;;;;;18.00;10.50;;;;;;;-8.26;79.71;100381.78;217728;1266;139977;-70
2024/01/07 19:07:40;;;;;;;13.70;8.20;;;;;;;-8.31;79.63;100385.89;216134;1265;140564;-68
2024/01/07 19:12:44;;;;;;;19.60;8.20;;;;;;;-8.35;79.48;100392.23;216788;1264;141212;-67
2024/01/07 19:17:47;;;;;;;16.70;11.40;;;;;;;-8.44;79.39;100390.88;218318;1267;141055;-66
2024/01/07 19:22:50;;;;;;;23.30;12.40;;;;;;;-8.49;79.48;100394.80;217766;1267;140700;-68
2024/01/07 19:27:53;;;;;;;17.50;12.00;;;;;;;-8.53;79.55;100399.85;216260;1265;141374;-67
2024/01/07 19:32:56;;;;;;;24.10;14.70;;;;;;;-8.55;79.68;100402.72;216257;1264;141818;-68
2024/01/07 19:38:04;;;;;;;22.50;13.00;;;;;;;-8.61;79.54;100401.58;217747;1267;140399;-69
2024/01/07 19:43:08;;;;;;;18.00;10.40;;;;;;;-8.63;79.44;100411.73;216143;1264;140767;-70
2024/01/07 19:48:11;;;;;;;16.50;10.50;;;;;;;-8.71;79.25;100414.97;216824;1265;140430;-66
2024/01/07 19:53:14;;;;;;;16.30;9.70;;;;;;;-8.82;79.12;100419.59;216961;1264;141020;-68
2024/01/07 19:58:29;;;;;;;24.30;11.40;;;;;;;-8.86;79.03;100422.31;216801;1264;140222;-68
2024/01/07 20:03:32;;;;;;;16.00;9.70;;;;;;;-8.90;79.14;100429.09;216841;1264;140369;-68
2024/01/07 20:08:35;;;;;;;19.10;10.80;;;;;;;-8.98;78.83;100434.95;216549;1265;140339;-69
2024/01/07 20:13:38;;;;;;;25.00;12.20;;;;;;;-9.05;78.55;100440.84;217434;1265;140660;-67
2024/01/07 20:18:40;;;;;;;20.60;10.60;;;;;;;-9.08;78.97;100443.61;216271;1266;140397;-68
2024/01/07 20:23:43;;;;;;;16.80;8.30;;;;;;;-9.06;78.81;100450.04;217637;1264;140342;-65
2024/01/07 20:28:49;;;;;;;14.60;9.20;;;;;;;-9.12;78.45;100460.23;216280;1265;140205;-68
2024/01/07 20:33:52;;;;;;;20.50;10.90;;;;;;;-9.19;78.29;100466.32;216592;1264;141575;-68
2024/01/07 20:38:56;;;;;;;21.10;11.20;;;;;;;-9.25;78.33;100474.27;216430;1265;140154;-67
2024/01/07 20:43:59;;;;;;;17.90;9.40;;;;;;;-9.27;78.52;100483.15;216093;1263;140863;-70
2024/01/07 20:49:02;;;;;;;12.40;8.10;;;;;;;-9.28;78.27;100489.44;217404;1264;140266;-67
2024/01/07 20:54:06;;;;;;;15.80;7.80;;;;;;;-9.29;78.17;100495.30;216336;1264;140728;-67
2024/01/07 20:59:10;;;;;;;18.60;10.90;;;;;;;-9.35;78.03;100501.02;216182;1267;140401;-67
2024/01/07 21:04:14;;;;;;;20.60;8.30;;;;;;;-9.38;78.17;100507.05;217321;1265;141391;-66
2024/01/07 21:09:17;;;;;;;26.30;11.90;;;;;;;-9.44;77.84;100513.91;216325;1267;140044;-68
2024/01/07 21:14:20;;;;;;;16.50;10.10;;;;;;;-9.51;77.70;100525.88;216178;1265;140576;-66
2024/01/07 21:19:23;;;;;;;19.60;10.10;;;;;;;-9.55;77.89;100528.67;217379;1265;141905;-68
2024/01/07 21:24:25;;;;;;;26.00;11.10;;;;;;;-9.53;77.80;100527.71;218191;1264;140585;-66
2024/01/07 21:29:28;;;;;;;17.60;9.50;;;;;;;-9.58;77.64;100531.45;216393;1265;140720;-69
2024/01/07 21:34:31;;;;;;;14.90;9.20;;;;;;;-9.60;77.54;100539.80;217577;1265;141375;-67
2024/01/07 21:39:36;;;;;;;16.40;8.70;;;;;;;-9.59;77.44;100536.32;216817;1263;140207;-68
2024/01/07 21:44:39;;;;;;;18.60;10.60;;;;;;;-9.62;77.20;100537.99;217278;1265;140356;-66
2024/01/07 21:49:49;;;;;;;15.90;8.00;;;;;;;-9.62;77.20;100534.26;216102;1265;143029;-67
2024/01/07 21:54:53;;;;;;;31.10;11.00;;;;;;;-9.69;77.22;100536.89;217606;1267;141834;-65
2024/01/07 21:59:56;;;;;;;15.60;9.40;;;;;;;-9.80;76.84;100538.56;215828;1268;140304;-67
2024/01/07 22:04:59;;;;;;;17.40;9.00;;;;;;;-9.82;77.03;100544.17;217281;1265;141527;-66
2024/01/07 22:10:04;;;;;;;21.90;11.90;;;;;;;-9.87;76.95;100544.11;216993;1266;142324;-68
2024/01/07 22:15:08;;;;;;;18.00;9.20;;;;;;;-9.88;77.10;100548.09;216802;1264;141398;-67
2024/01/07 22:20:11;;;;;;;21.80;9.50;;;;;;;-9.85;77.23;100549.64;217081;1267;142492;-66
2024/01/07 22:25:15;;;;;;;23.10;11.40;;;;;;;-9.80;76.96;100551.31;216875;1264;140617;-67
2024/01/07 22:30:18;;;;;;;21.70;11.20;;;;;;;-9.85;76.85;100557.04;215975;1264;254852;-68
2024/01/07 22:35:21;;;;;;;17.20;9.40;;;;;;;-9.94;76.59;100556.33;215961;1267;140919;-69
2024/01/07 22:40:24;;;;;;;23.60;11.30;;;;;;;-10.01;76.79;100559.27;215724;1268;140983;-68
2024/01/07 22:45:28;;;;;;;19.20;9.50;;;;;;;-10.08;76.44;100563.30;215925;1265;142829;-69